Time;durP1;ratioP1;P1;durP2;ratioP2;P2;SDS_P1;SDS_P2;PMS_P1;PMS_P2;Temp;Humidity;BMP_temperature;BMP_pressure;BME280_temperature;BME280_humidity;BME280_pressure;Samples;Min_cycle;Max_cycle;Signal;HPM_P1;HPM_P2
2023/02/05 00:02:06;;;;;;;;;;;;;;;-0.74;100.00;100376.56;5047616;28;19936;-54
2023/02/05 00:04:32;;;;;;;;;;;;;;;-0.82;100.00;100379.47;5031193;28;19932;-53
2023/02/05 00:06:58;;;;;;;;;;;;;;;-0.82;100.00;100371.91;5031677;28;19925;-53
2023/02/05 00:09:23;;;;;;;;;;;;;;;-0.77;100.00;100386.50;5031518;28;19929;-55
2023/02/05 00:11:49;;;;;;;;;;;;;;;-0.76;100.00;100387.34;5032874;28;20488;-54
2023/02/05 00:14:14;;;;;;;;;;;;;;;-0.73;100.00;100383.34;5049774;28;19965;-59
2023/02/05 00:16:40;;;;;;;;;;;;;;;-0.74;100.00;100378.22;5032029;28;20011;-57
2023/02/05 00:19:05;;;;;;;;;;;;;;;-0.77;100.00;100390.66;5031243;28;19936;-57
2023/02/05 00:21:32;;;;;;;;;;;;;;;-0.78;100.00;100388.91;5030802;28;19999;-58
2023/02/05 00:23:57;;;;;;;;;;;;;;;-0.73;100.00;100392.56;5030600;28;19932;-51
2023/02/05 00:26:24;;;;;;;;;;;;;;;-0.72;100.00;100386.75;5031450;28;19929;-54
2023/02/05 00:28:49;;;;;;;;;;;;;;;-0.74;100.00;100394.19;5031996;28;19971;-54
2023/02/05 00:31:16;;;;;;;;;;;;;;;-0.76;100.00;100392.38;5036959;28;19925;-54
2023/02/05 00:33:43;;;;;;;;;;;;;;;-0.79;100.00;100388.03;5028387;28;20020;-55
2023/02/05 00:36:09;;;;;;;;;;;;;;;-0.79;100.00;100385.53;5031568;28;19932;-62
2023/02/05 00:38:36;;;;;;;;;;;;;;;-0.76;100.00;100387.34;5034490;28;20032;-52
2023/02/05 00:41:02;;;;;;;;;;;;;;;-0.78;100.00;100393.94;5031919;28;20031;-52
2023/02/05 00:43:29;;;;;;;;;;;;;;;-0.79;100.00;100377.09;5032296;28;19925;-53
2023/02/05 00:45:55;;;;;;;;;;;;;;;-0.80;100.00;100391.34;5033315;28;19933;-60
2023/02/05 00:48:20;;;;;;;;;;;;;;;-0.77;100.00;100391.53;5034372;28;19933;-53
2023/02/05 00:50:47;;;;;;;;;;;;;;;-0.77;100.00;100388.16;5035393;28;19975;-56
2023/02/05 00:53:13;;;;;;;;;;;;;;;-0.77;100.00;100394.06;5034949;28;20378;-58
2023/02/05 00:55:41;;;;;;;;;;;;;;;-0.68;100.00;100402.06;5037578;28;19929;-59
2023/02/05 00:58:07;;;;;;;;;;;;;;;-0.76;100.00;100408.34;5067773;28;19929;-57
2023/02/05 01:00:32;;;;;;;;;;;;;;;-0.77;100.00;100406.63;5035972;28;20391;-60
2023/02/05 01:02:59;;;;;;;;;;;;;;;-0.75;100.00;100400.00;5033273;28;19985;-58
2023/02/05 01:05:25;;;;;;;;;;;;;;;-0.73;100.00;100407.66;5052171;28;19939;-64
2023/02/05 01:07:50;;;;;;;;;;;;;;;-0.71;100.00;100413.63;5036722;28;20332;-59
2023/02/05 01:10:16;;;;;;;;;;;;;;;-0.73;100.00;100415.22;5033160;28;20022;-58
2023/02/05 01:12:42;;;;;;;;;;;;;;;-0.73;100.00;100420.25;5030580;28;19925;-57
2023/02/05 01:15:07;;;;;;;;;;;;;;;-0.77;100.00;100425.91;5047492;28;19936;-55
2023/02/05 01:17:33;;;;;;;;;;;;;;;-0.73;100.00;100418.59;5034184;28;19942;-56
2023/02/05 01:19:59;;;;;;;;;;;;;;;-0.69;100.00;100425.53;5033747;28;19929;-58
2023/02/05 01:22:25;;;;;;;;;;;;;;;-0.75;100.00;100425.19;5034108;28;19925;-56
2023/02/05 01:24:51;;;;;;;;;;;;;;;-0.79;100.00;100423.28;5032986;28;19948;-56
2023/02/05 01:27:16;;;;;;;;;;;;;;;-0.77;100.00;100426.78;5031474;28;19948;-54
2023/02/05 01:29:42;;;;;;;;;;;;;;;-0.88;100.00;100420.28;5027198;28;20020;-56
2023/02/05 01:32:07;;;;;;;;;;;;;;;-0.86;100.00;100423.75;5012275;28;20011;-56
2023/02/05 01:34:33;;;;;;;;;;;;;;;-0.91;100.00;100412.56;5030080;28;19925;-57
2023/02/05 01:36:58;;;;;;;;;;;;;;;-0.95;100.00;100411.53;5030457;28;20285;-56
2023/02/05 01:39:23;;;;;;;;;;;;;;;-0.95;100.00;100416.56;5028290;28;20379;-57
2023/02/05 01:41:49;;;;;;;;;;;;;;;-1.01;100.00;100428.78;5026642;28;19928;-54
2023/02/05 01:44:17;;;;;;;;;;;;;;;-0.99;100.00;100422.22;5025346;28;19982;-58
2023/02/05 01:46:46;;;;;;;;;;;;;;;-1.00;100.00;100428.03;5027712;28;19924;-56
2023/02/05 01:49:20;;;;;;;;;;;;;;;-1.02;100.00;100434.59;5028194;28;19933;-55
2023/02/05 01:51:47;;;;;;;;;;;;;;;-1.05;100.00;100423.50;5027941;28;19925;-55
2023/02/05 01:54:14;;;;;;;;;;;;;;;-1.06;100.00;100422.63;5036287;28;19963;-58
2023/02/05 01:56:41;;;;;;;;;;;;;;;-1.05;100.00;100419.34;5027229;28;19986;-56
2023/02/05 01:59:15;;;;;;;;;;;;;;;-1.06;100.00;100414.25;5031017;28;19975;-56
2023/02/05 02:01:41;;;;;;;;;;;;;;;-1.12;100.00;100414.75;5025854;28;20482;-57
2023/02/05 02:04:09;;;;;;;;;;;;;;;-1.11;100.00;100408.09;5025224;28;19960;-54
2023/02/05 02:06:35;;;;;;;;;;;;;;;-1.14;100.00;100418.81;5027649;28;20498;-57
2023/02/05 02:09:01;;;;;;;;;;;;;;;-1.19;100.00;100414.34;5045334;28;19947;-54
2023/02/05 02:11:29;;;;;;;;;;;;;;;-1.16;100.00;100409.47;5027437;28;20016;-56
2023/02/05 02:13:57;;;;;;;;;;;;;;;-1.14;100.00;100403.72;5042110;28;20008;-55
2023/02/05 02:16:23;;;;;;;;;;;;;;;-1.16;99.10;100396.91;5027446;28;20750;-53
2023/02/05 02:18:50;;;;;;;;;;;;;;;-1.20;97.57;100405.06;5023669;28;19929;-54
2023/02/05 02:21:21;;;;;;;;;;;;;;;-1.30;98.00;100398.63;5024806;28;19996;-55
2023/02/05 02:24:05;;;;;;;;;;;;;;;-1.30;100.00;100415.38;5029398;28;19924;-56
2023/02/05 02:26:49;;;;;;;;;;;;;;;-1.31;100.00;100419.53;5028141;28;19924;-55
2023/02/05 02:29:21;;;;;;;;;;;;;;;-1.28;98.91;100416.34;5027562;28;19925;-58
2023/02/05 02:31:52;;;;;;;;;;;;;;;-1.33;98.80;100426.13;5026241;28;19955;-56
2023/02/05 02:34:25;;;;;;;;;;;;;;;-1.31;97.54;100434.63;5028695;28;20431;-58
2023/02/05 02:36:54;;;;;;;;;;;;;;;-1.29;97.92;100432.22;5062791;28;20026;-56
2023/02/05 02:39:32;;;;;;;;;;;;;;;-1.31;98.85;100432.09;5029958;28;20136;-57
2023/02/05 02:42:04;;;;;;;;;;;;;;;-1.37;98.92;100441.84;5028392;28;20373;-56
2023/02/05 02:44:39;;;;;;;;;;;;;;;-1.33;98.64;100437.84;5028493;28;20166;-56
2023/02/05 02:47:13;;;;;;;;;;;;;;;-1.42;99.35;100445.72;5030593;28;20368;-55
2023/02/05 02:49:44;;;;;;;;;;;;;;;-1.46;100.00;100449.72;5029950;28;20439;-56
2023/02/05 02:52:12;;;;;;;;;;;;;;;-1.54;100.00;100443.38;5039880;28;19929;-54
2023/02/05 02:54:40;;;;;;;;;;;;;;;-1.54;100.00;100452.56;5029550;28;19925;-57
2023/02/05 02:57:07;;;;;;;;;;;;;;;-1.51;100.00;100445.19;5023351;28;19925;-55
2023/02/05 02:59:35;;;;;;;;;;;;;;;-1.52;99.41;100449.34;5033443;28;19999;-54
2023/02/05 03:02:03;;;;;;;;;;;;;;;-1.58;99.62;100445.63;5032531;28;19924;-57
2023/02/05 03:04:28;;;;;;;;;;;;;;;-1.57;100.00;100443.19;5031484;28;19928;-56
2023/02/05 03:06:56;;;;;;;;;;;;;;;-1.64;100.00;100438.59;5031339;28;20380;-55
2023/02/05 03:09:29;;;;;;;;;;;;;;;-1.68;100.00;100456.78;5063647;28;19925;-56
2023/02/05 03:11:54;;;;;;;;;;;;;;;-1.74;99.58;100440.50;5029334;28;19948;-57
2023/02/05 03:14:23;;;;;;;;;;;;;;;-1.78;100.00;100464.56;5059760;28;19953;-53
2023/02/05 03:16:49;;;;;;;;;;;;;;;-1.85;100.00;100455.81;5032488;28;19963;-56
2023/02/05 03:19:15;;;;;;;;;;;;;;;-1.85;100.00;100452.41;5033371;28;19983;-57
2023/02/05 03:21:43;;;;;;;;;;;;;;;-1.81;100.00;100461.00;5036856;28;20379;-54
2023/02/05 03:24:09;;;;;;;;;;;;;;;-1.86;100.00;100464.13;5032407;28;20009;-59
2023/02/05 03:26:35;;;;;;;;;;;;;;;-1.88;100.00;100463.19;5034009;28;19929;-55
2023/02/05 03:29:26;;;;;;;;;;;;;;;-1.91;100.00;100459.63;5064425;28;20280;-57
2023/02/05 03:32:12;;;;;;;;;;;;;;;-1.95;100.00;100455.16;5038283;28;19955;-57
2023/02/05 03:34:37;;;;;;;;;;;;;;;-1.97;100.00;100462.63;5017878;28;20018;-55
2023/02/05 03:37:09;;;;;;;;;;;;;;;-1.97;100.00;100471.81;5062050;28;20360;-55
2023/02/05 03:39:41;;;;;;;;;;;;;;;-2.07;100.00;100465.34;5031976;28;19925;-55
2023/02/05 03:42:19;;;;;;;;;;;;;;;-2.02;100.00;100471.53;5030509;28;20047;-54
2023/02/05 03:45:01;;;;;;;;;;;;;;;-2.05;100.00;100468.84;5040916;28;19925;-55
2023/02/05 03:47:43;;;;;;;;;;;;;;;-2.03;100.00;100468.91;5030604;28;19925;-55
2023/02/05 03:50:11;;;;;;;;;;;;;;;-2.12;100.00;100471.72;5028946;28;20023;-54
2023/02/05 03:52:41;;;;;;;;;;;;;;;-2.15;100.00;100475.72;5029701;28;19998;-55
2023/02/05 03:55:14;;;;;;;;;;;;;;;-2.05;100.00;100470.47;5042369;28;20376;-52
2023/02/05 03:57:55;;;;;;;;;;;;;;;-2.09;100.00;100471.06;5035265;28;19925;-55
2023/02/05 04:00:21;;;;;;;;;;;;;;;-2.14;100.00;100473.31;5063035;28;20040;-55
2023/02/05 04:02:50;;;;;;;;;;;;;;;-1.51;100.00;100475.38;5031712;28;19933;-56
2023/02/05 04:05:22;;;;;;;;;;;;;;;-1.45;100.00;100485.81;5034837;28;20363;-56
2023/02/05 04:07:50;;;;;;;;;;;;;;;-1.11;100.00;100486.97;5063824;28;19925;-54
2023/02/05 04:10:18;;;;;;;;;;;;;;;-1.28;100.00;100495.19;5030718;28;19925;-56
2023/02/05 04:12:45;;;;;;;;;;;;;;;-0.64;100.00;100492.13;5030950;28;20005;-62
2023/02/05 04:15:11;;;;;;;;;;;;;;;-1.00;99.70;100490.94;5028834;28;20380;-56
2023/02/05 04:17:40;;;;;;;;;;;;;;;-1.13;100.00;100478.44;5064601;28;19929;-57
2023/02/05 04:20:07;;;;;;;;;;;;;;;-0.98;99.14;100480.97;5014685;28;20367;-57
2023/02/05 04:22:32;;;;;;;;;;;;;;;-0.94;99.39;100473.69;5028853;28;20240;-55
2023/02/05 04:24:58;;;;;;;;;;;;;;;-1.07;97.62;100463.72;5027905;28;20348;-57
2023/02/05 04:27:24;;;;;;;;;;;;;;;-1.20;97.55;100471.34;5028671;28;19956;-58
2023/02/05 04:29:50;;;;;;;;;;;;;;;-1.05;98.76;100463.78;5032552;28;19928;-55
2023/02/05 04:32:15;;;;;;;;;;;;;;;-1.08;94.29;100478.72;5063779;28;19943;-56
2023/02/05 04:34:41;;;;;;;;;;;;;;;-1.18;94.67;100459.69;5062763;28;19929;-55
2023/02/05 04:37:09;;;;;;;;;;;;;;;-1.17;93.19;100494.16;5045784;28;20428;-55
2023/02/05 04:39:34;;;;;;;;;;;;;;;-1.42;94.87;100479.31;5031696;28;19928;-54
2023/02/05 04:42:00;;;;;;;;;;;;;;;-1.08;97.86;100482.09;5029195;28;19935;-56
2023/02/05 04:44:26;;;;;;;;;;;;;;;-1.36;96.95;100483.81;5032556;28;19960;-52
2023/02/05 04:46:52;;;;;;;;;;;;;;;-1.10;99.22;100482.78;5032303;28;20070;-55
2023/02/05 04:49:17;;;;;;;;;;;;;;;-1.61;96.65;100485.69;5030183;28;19933;-57
2023/02/05 04:51:42;;;;;;;;;;;;;;;-1.59;98.73;100479.97;5029885;28;20434;-58
2023/02/05 04:54:08;;;;;;;;;;;;;;;-1.87;98.21;100464.88;5031342;28;20450;-54
2023/02/05 04:56:33;;;;;;;;;;;;;;;-1.87;98.19;100467.41;5030050;28;19933;-56
2023/02/05 04:58:59;;;;;;;;;;;;;;;-2.03;99.86;100457.22;5030347;28;20493;-55
2023/02/05 05:01:24;;;;;;;;;;;;;;;-2.34;99.96;100457.03;5030224;28;20323;-57
2023/02/05 05:03:50;;;;;;;;;;;;;;;-2.40;100.00;100458.28;5029312;28;19936;-56
2023/02/05 05:06:16;;;;;;;;;;;;;;;-2.48;100.00;100454.44;5030541;28;19933;-54
2023/02/05 05:08:42;;;;;;;;;;;;;;;-2.60;100.00;100447.03;5031723;28;19929;-56
2023/02/05 05:11:09;;;;;;;;;;;;;;;-2.63;100.00;100443.47;5027731;28;20332;-54
2023/02/05 05:13:35;;;;;;;;;;;;;;;-2.70;100.00;100446.34;5026376;28;20059;-54
2023/02/05 05:16:01;;;;;;;;;;;;;;;-2.68;100.00;100449.84;5031242;28;20008;-55
2023/02/05 05:18:26;;;;;;;;;;;;;;;-2.72;100.00;100460.47;5030585;28;19941;-54
2023/02/05 05:20:52;;;;;;;;;;;;;;;-2.72;100.00;100458.81;5031077;28;20418;-55
2023/02/05 05:23:17;;;;;;;;;;;;;;;-2.75;100.00;100468.63;5031142;28;19924;-55
2023/02/05 05:25:44;;;;;;;;;;;;;;;-2.70;100.00;100466.44;5031080;28;20462;-53
2023/02/05 05:28:10;;;;;;;;;;;;;;;-2.68;100.00;100458.25;5029128;28;19936;-54
2023/02/05 05:30:42;;;;;;;;;;;;;;;-2.74;100.00;100467.00;5030462;28;19925;-54
2023/02/05 05:33:08;;;;;;;;;;;;;;;-2.77;100.00;100463.56;5059362;28;19929;-52
2023/02/05 05:35:34;;;;;;;;;;;;;;;-2.80;100.00;100483.41;5062396;28;20524;-55
2023/02/05 05:37:59;;;;;;;;;;;;;;;-2.74;100.00;100484.56;5030067;28;20392;-54
2023/02/05 05:46:02;;;;;;;;;;;;;;;-2.75;100.00;100476.16;5029697;28;19979;-52
2023/02/05 05:48:27;;;;;;;;;;;;;;;-2.75;100.00;100488.72;5029174;28;19955;-53
2023/02/05 05:50:53;;;;;;;;;;;;;;;-2.74;100.00;100485.44;5030534;28;19929;-56
2023/02/05 05:53:19;;;;;;;;;;;;;;;-2.79;100.00;100496.81;5028639;28;19960;-54
2023/02/05 05:55:44;;;;;;;;;;;;;;;-2.80;100.00;100490.09;5062731;28;20055;-52
2023/02/05 05:58:10;;;;;;;;;;;;;;;-2.74;100.00;100494.63;5030061;28;19929;-57
2023/02/05 06:00:36;;;;;;;;;;;;;;;-2.71;100.00;100494.78;5030544;28;20038;-55
2023/02/05 06:03:01;;;;;;;;;;;;;;;-2.72;100.00;100504.00;5027630;28;19929;-55
2023/02/05 06:05:27;;;;;;;;;;;;;;;-2.75;100.00;100503.78;5031298;28;19951;-61
2023/02/05 06:07:52;;;;;;;;;;;;;;;-2.78;100.00;100509.47;5028832;28;20435;-55
2023/02/05 06:10:18;;;;;;;;;;;;;;;-2.79;100.00;100506.88;5029833;28;19940;-57
2023/02/05 06:12:43;;;;;;;;;;;;;;;-2.80;100.00;100500.97;5031829;28;19932;-55
2023/02/05 06:15:09;;;;;;;;;;;;;;;-2.79;100.00;100501.84;5032763;28;19936;-56
2023/02/05 06:17:34;;;;;;;;;;;;;;;-2.78;100.00;100509.47;5031588;28;20352;-55
2023/02/05 06:20:00;;;;;;;;;;;;;;;-2.84;100.00;100501.56;5031943;28;20478;-54
2023/02/05 06:22:25;;;;;;;;;;;;;;;-2.81;100.00;100503.41;5032628;28;20406;-55
2023/02/05 06:24:51;;;;;;;;;;;;;;;-2.84;100.00;100514.09;5034846;28;19925;-56
2023/02/05 06:27:16;;;;;;;;;;;;;;;-2.81;100.00;100526.00;5031945;28;19933;-56
2023/02/05 06:29:42;;;;;;;;;;;;;;;-2.74;100.00;100522.22;5033035;28;20534;-57
2023/02/05 06:32:07;;;;;;;;;;;;;;;-2.74;100.00;100515.56;5046250;28;19929;-54
2023/02/05 06:34:33;;;;;;;;;;;;;;;-2.73;100.00;100531.50;5033614;28;20163;-54
2023/02/05 06:36:58;;;;;;;;;;;;;;;-2.72;100.00;100524.06;5032089;28;20398;-55
2023/02/05 06:39:24;;;;;;;;;;;;;;;-2.76;100.00;100535.53;5061859;28;19936;-55
2023/02/05 06:41:49;;;;;;;;;;;;;;;-2.74;100.00;100522.22;5032163;28;20402;-55
2023/02/05 06:44:14;;;;;;;;;;;;;;;-2.71;100.00;100524.91;5062517;28;19972;-58
2023/02/05 06:46:40;;;;;;;;;;;;;;;-2.69;100.00;100524.25;5030433;28;19987;-55
2023/02/05 06:49:05;;;;;;;;;;;;;;;-2.69;100.00;100525.91;5029446;28;19929;-57
2023/02/05 06:51:31;;;;;;;;;;;;;;;-2.63;100.00;100532.16;5028343;28;20289;-55
2023/02/05 06:53:56;;;;;;;;;;;;;;;-2.58;100.00;100527.44;5059779;28;19936;-54
2023/02/05 06:56:23;;;;;;;;;;;;;;;-2.61;100.00;100535.66;5032916;28;20368;-55
2023/02/05 06:58:48;;;;;;;;;;;;;;;-2.60;100.00;100536.53;5029864;28;20404;-57
2023/02/05 07:01:14;;;;;;;;;;;;;;;-2.53;100.00;100543.66;5033206;28;20402;-58
2023/02/05 07:03:39;;;;;;;;;;;;;;;-2.37;100.00;100537.19;5031999;28;19971;-55
2023/02/05 07:06:05;;;;;;;;;;;;;;;-2.38;99.82;100535.44;5029804;28;19929;-56
2023/02/05 07:08:31;;;;;;;;;;;;;;;-2.35;99.30;100538.16;5029813;28;19929;-54
2023/02/05 07:10:57;;;;;;;;;;;;;;;-2.41;100.00;100540.28;5055756;28;20406;-58
2023/02/05 07:13:22;;;;;;;;;;;;;;;-2.35;100.00;100534.78;5028499;28;20496;-57
2023/02/05 07:15:48;;;;;;;;;;;;;;;-2.26;100.00;100537.00;5029840;28;19936;-54
2023/02/05 07:18:14;;;;;;;;;;;;;;;-2.20;100.00;100540.75;5029712;28;19940;-55
2023/02/05 07:20:39;;;;;;;;;;;;;;;-2.18;100.00;100534.19;5030018;28;19928;-58
2023/02/05 07:23:04;;;;;;;;;;;;;;;-2.13;99.50;100537.84;5030354;28;20004;-56
2023/02/05 07:25:35;;;;;;;;;;;;;;;-2.07;98.46;100539.84;5032278;28;19986;-52
2023/02/05 07:28:01;;;;;;;;;;;;;;;-2.06;98.65;100537.44;5030205;28;19972;-55
2023/02/05 07:30:27;;;;;;;;;;;;;;;-2.05;100.00;100534.16;5027563;28;20248;-57
2023/02/05 07:32:52;;;;;;;;;;;;;;;-2.01;99.21;100540.25;5027972;28;20030;-55
2023/02/05 07:35:18;;;;;;;;;;;;;;;-1.96;99.13;100542.28;5031164;28;19924;-55
2023/02/05 07:37:43;;;;;;;;;;;;;;;-1.99;99.11;100539.53;5062328;28;19928;-56
2023/02/05 07:40:09;;;;;;;;;;;;;;;-1.94;99.54;100542.34;5030228;28;20371;-57
2023/02/05 07:42:35;;;;;;;;;;;;;;;-1.77;99.45;100538.34;5030223;28;20382;-58
2023/02/05 07:45:01;;;;;;;;;;;;;;;-1.79;98.81;100543.28;5061514;28;19925;-56
2023/02/05 07:47:26;;;;;;;;;;;;;;;-1.81;98.87;100547.34;5030581;28;20420;-57
2023/02/05 07:49:52;;;;;;;;;;;;;;;-1.71;99.11;100546.25;5019193;28;20222;-56
2023/02/05 07:52:17;;;;;;;;;;;;;;;-1.70;97.93;100546.34;5029385;28;19952;-57
2023/02/05 07:54:43;;;;;;;;;;;;;;;-1.60;98.96;100557.81;5028993;28;20372;-59
2023/02/05 07:57:08;;;;;;;;;;;;;;;-1.61;97.82;100553.59;5032778;28;20193;-52
2023/02/05 07:59:34;;;;;;;;;;;;;;;-1.50;97.94;100548.41;5029794;28;20569;-56
2023/02/05 08:02:00;;;;;;;;;;;;;;;-1.54;96.92;100548.13;5027580;28;19979;-59
2023/02/05 08:04:25;;;;;;;;;;;;;;;-1.50;95.18;100550.91;5062050;28;19929;-55
2023/02/05 08:06:50;;;;;;;;;;;;;;;-1.48;93.61;100564.44;5024360;28;19932;-55
2023/02/05 08:09:16;;;;;;;;;;;;;;;-1.44;93.79;100563.84;5025454;28;19940;-57
2023/02/05 08:11:41;;;;;;;;;;;;;;;-1.31;91.83;100567.94;5029657;28;19932;-56
2023/02/05 08:14:08;;;;;;;;;;;;;;;-1.29;91.13;100573.94;5028530;28;20478;-53
2023/02/05 08:16:34;;;;;;;;;;;;;;;-1.26;89.07;100569.09;5036912;28;19939;-53
2023/02/05 08:18:59;;;;;;;;;;;;;;;-1.24;89.71;100562.53;5029618;28;20157;-55
2023/02/05 08:21:25;;;;;;;;;;;;;;;-1.15;89.12;100568.09;5030581;28;20021;-54
2023/02/05 08:23:50;;;;;;;;;;;;;;;-1.02;87.49;100557.09;5028098;28;19929;-55
2023/02/05 08:26:16;;;;;;;;;;;;;;;-1.09;85.67;100558.38;5026941;28;20569;-54
2023/02/05 08:28:41;;;;;;;;;;;;;;;-1.02;84.88;100545.34;5028326;28;20425;-59
2023/02/05 08:31:15;;;;;;;;;;;;;;;-0.91;84.33;100558.56;5027637;28;20372;-54
2023/02/05 08:33:41;;;;;;;;;;;;;;;-0.95;83.32;100564.19;5026459;28;20471;-56
2023/02/05 08:36:07;;;;;;;;;;;;;;;-0.96;83.41;100555.78;5029228;28;20020;-56
2023/02/05 08:38:32;;;;;;;;;;;;;;;-0.84;81.49;100548.03;5031443;28;20008;-57
2023/02/05 08:41:02;;;;;;;;;;;;;;;-0.75;81.71;100553.59;5033868;28;19925;-54
2023/02/05 08:43:27;;;;;;;;;;;;;;;-0.68;82.98;100545.59;5027419;28;20128;-54
2023/02/05 08:45:52;;;;;;;;;;;;;;;-0.82;79.08;100558.22;5030703;28;19925;-55
2023/02/05 08:48:18;;;;;;;;;;;;;;;-0.82;79.88;100543.09;5030843;28;19975;-57
2023/02/05 08:50:44;;;;;;;;;;;;;;;-0.64;79.44;100562.66;5030659;28;20106;-55
2023/02/05 08:53:09;;;;;;;;;;;;;;;-0.72;78.70;100563.84;5026624;28;19929;-51
2023/02/05 08:55:35;;;;;;;;;;;;;;;-0.56;79.04;100558.91;5027299;28;20154;-55
2023/02/05 08:58:00;;;;;;;;;;;;;;;-0.67;76.54;100554.03;5029586;28;20386;-53
2023/02/05 09:00:26;;;;;;;;;;;;;;;-0.49;78.83;100560.97;5028040;28;19997;-56
2023/02/05 09:02:51;;;;;;;;;;;;;;;-0.21;80.76;100549.91;5029819;28;20016;-57
2023/02/05 09:05:21;;;;;;;;;;;;;;;0.04;80.57;100552.97;5043798;28;19935;-54
2023/02/05 09:07:47;;;;;;;;;;;;;;;0.17;76.67;100551.97;5028335;28;19921;-54
2023/02/05 09:10:13;;;;;;;;;;;;;;;0.65;81.47;100554.47;5029437;28;20641;-55
2023/02/05 09:12:38;;;;;;;;;;;;;;;0.73;72.96;100552.34;5027392;28;20444;-61
2023/02/05 09:15:04;;;;;;;;;;;;;;;0.36;72.76;100569.78;5025057;28;19936;-54
2023/02/05 09:17:30;;;;;;;;;;;;;;;0.18;71.98;100556.19;5028627;28;19925;-58
2023/02/05 09:19:55;;;;;;;;;;;;;;;0.73;72.97;100555.75;5028559;28;20467;-56
2023/02/05 09:22:21;;;;;;;;;;;;;;;0.71;68.95;100557.34;5028334;28;19968;-55
2023/02/05 09:24:46;;;;;;;;;;;;;;;-0.09;67.73;100543.00;5028393;28;19933;-57
2023/02/05 09:27:13;;;;;;;;;;;;;;;0.15;69.55;100548.47;5029243;28;20356;-55
2023/02/05 09:29:40;;;;;;;;;;;;;;;0.40;70.71;100543.91;5028574;28;19933;-57
2023/02/05 09:32:05;;;;;;;;;;;;;;;0.54;68.40;100548.03;5027803;28;20249;-55
2023/02/05 09:34:31;;;;;;;;;;;;;;;0.75;65.90;100544.09;5029049;28;19972;-53
2023/02/05 09:36:56;;;;;;;;;;;;;;;0.72;66.02;100540.53;5033196;28;19925;-56
2023/02/05 09:39:22;;;;;;;;;;;;;;;1.04;64.81;100542.13;5032295;28;19929;-57
2023/02/05 09:41:58;;;;;;;;;;;;;;;1.02;65.94;100541.22;5034054;28;19936;-56
2023/02/05 09:44:36;;;;;;;;;;;;;;;1.19;64.22;100535.31;5025721;28;20058;-56
2023/02/05 09:47:10;;;;;;;;;;;;;;;1.48;63.66;100537.59;5033025;28;19968;-55
2023/02/05 09:49:38;;;;;;;;;;;;;;;0.93;58.66;100546.66;5026557;28;19929;-55
2023/02/05 09:52:10;;;;;;;;;;;;;;;0.42;61.45;100539.84;5030794;28;19929;-56
2023/02/05 09:54:40;;;;;;;;;;;;;;;0.46;63.16;100544.25;5030915;28;19936;-56
2023/02/05 09:57:10;;;;;;;;;;;;;;;0.65;62.58;100551.97;5023258;28;19925;-56
2023/02/05 09:59:35;;;;;;;;;;;;;;;0.76;62.92;100547.47;5032842;28;19928;-57
2023/02/05 10:02:17;;;;;;;;;;;;;;;0.34;62.48;100541.09;5033200;28;20214;-56
2023/02/05 10:04:42;;;;;;;;;;;;;;;0.50;63.83;100525.09;5030275;28;19935;-56
2023/02/05 10:07:18;;;;;;;;;;;;;;;0.31;62.47;100529.19;5029448;28;20001;-53
2023/02/05 10:09:47;;;;;;;;;;;;;;;0.36;62.86;100519.31;5032186;28;19929;-56
2023/02/05 10:12:18;;;;;;;;;;;;;;;-0.12;62.79;100515.97;5027457;28;19964;-57
2023/02/05 10:14:50;;;;;;;;;;;;;;;-0.25;64.61;100517.72;5029322;28;19951;-56
2023/02/05 10:17:34;;;;;;;;;;;;;;;-0.05;63.94;100517.19;5027749;28;19929;-56
2023/02/05 10:20:05;;;;;;;;;;;;;;;0.32;64.46;100514.91;5027369;28;19937;-57
2023/02/05 10:22:31;;;;;;;;;;;;;;;0.37;65.36;100516.03;5026835;28;19948;-55
2023/02/05 10:24:56;;;;;;;;;;;;;;;0.35;63.98;100512.53;5027417;28;20467;-60
2023/02/05 10:27:38;;;;;;;;;;;;;;;0.23;62.49;100506.88;5029093;28;20454;-57
2023/02/05 10:30:14;;;;;;;;;;;;;;;-0.16;64.08;100498.94;5026982;28;20503;-56
2023/02/05 10:33:06;;;;;;;;;;;;;;;0.07;64.32;100496.78;5034548;28;19971;-57
2023/02/05 10:35:45;;;;;;;;;;;;;;;0.27;64.86;100488.59;5026267;28;19924;-56
2023/02/05 10:38:21;;;;;;;;;;;;;;;0.60;63.97;100492.81;5028320;28;20351;-58
2023/02/05 10:40:50;;;;;;;;;;;;;;;0.84;61.60;100490.66;5024463;28;19935;-55
2023/02/05 10:43:15;;;;;;;;;;;;;;;1.04;59.94;100484.91;5024766;28;19932;-55
2023/02/05 10:45:41;;;;;;;;;;;;;;;1.21;59.15;100478.16;5026744;28;19925;-56
2023/02/05 10:48:06;;;;;;;;;;;;;;;0.96;59.40;100475.25;5028416;28;20240;-58
2023/02/05 10:50:45;;;;;;;;;;;;;;;0.86;60.21;100461.28;5026978;28;19925;-57
2023/02/05 10:53:10;;;;;;;;;;;;;;;0.87;60.16;100481.56;5026746;28;19956;-57
2023/02/05 10:55:36;;;;;;;;;;;;;;;1.15;59.59;100462.69;5028149;28;20451;-58
2023/02/05 10:58:12;;;;;;;;;;;;;;;1.22;58.62;100465.59;5031938;28;20028;-58
2023/02/05 11:00:38;;;;;;;;;;;;;;;1.40;58.28;100458.00;5029816;28;19929;-56
2023/02/05 11:03:04;;;;;;;;;;;;;;;1.55;58.93;100450.28;5028004;28;19933;-52
2023/02/05 11:05:34;;;;;;;;;;;;;;;1.32;58.52;100456.78;5030498;28;20202;-57
2023/02/05 11:08:00;;;;;;;;;;;;;;;1.45;58.31;100448.09;5030800;28;19931;-57
2023/02/05 11:10:28;;;;;;;;;;;;;;;1.47;55.57;100449.94;5030946;28;19925;-53
2023/02/05 11:13:23;;;;;;;;;;;;;;;1.04;53.25;100449.56;5030214;28;20066;-53
2023/02/05 11:16:07;;;;;;;;;;;;;;;0.39;52.16;100448.84;5024584;28;19979;-57
2023/02/05 11:18:42;;;;;;;;;;;;;;;0.66;54.56;100440.13;5027617;28;19929;-55
2023/02/05 11:21:08;;;;;;;;;;;;;;;0.83;56.23;100434.25;5030537;28;19975;-58
2023/02/05 11:23:38;;;;;;;;;;;;;;;0.90;56.30;100438.78;5031063;28;19933;-56
2023/02/05 11:26:33;;;;;;;;;;;;;;;0.78;57.05;100437.34;5031118;28;19929;-59
2023/02/05 11:29:17;;;;;;;;;;;;;;;0.68;58.29;100430.13;5029544;28;19929;-57
2023/02/05 11:31:42;;;;;;;;;;;;;;;0.50;59.72;100429.22;5029452;28;20364;-57
2023/02/05 11:34:10;;;;;;;;;;;;;;;0.66;58.77;100432.56;5031246;28;19929;-58
2023/02/05 11:36:37;;;;;;;;;;;;;;;0.75;57.82;100424.59;5029772;28;20012;-57
2023/02/05 11:39:04;;;;;;;;;;;;;;;0.75;58.29;100422.06;5030722;28;19925;-57
2023/02/05 11:41:31;;;;;;;;;;;;;;;0.99;58.55;100413.13;5029647;28;19924;-58
2023/02/05 11:44:02;;;;;;;;;;;;;;;1.18;56.39;100410.69;5060697;28;20376;-58
2023/02/05 11:46:30;;;;;;;;;;;;;;;1.29;55.32;100406.97;5029927;28;20509;-59
2023/02/05 11:49:00;;;;;;;;;;;;;;;1.32;54.82;100417.22;5030692;28;19933;-59
2023/02/05 11:51:28;;;;;;;;;;;;;;;0.86;55.08;100413.31;5030355;28;19931;-60
2023/02/05 11:53:56;;;;;;;;;;;;;;;0.74;55.44;100422.84;5031327;28;20493;-57
2023/02/05 11:56:22;;;;;;;;;;;;;;;0.58;55.22;100426.28;5031168;28;20099;-59
2023/02/05 11:58:58;;;;;;;;;;;;;;;0.73;56.01;100416.06;5026708;28;19929;-59
2023/02/05 12:01:28;;;;;;;;;;;;;;;0.90;57.92;100420.25;5026290;28;19976;-59
2023/02/05 12:03:58;;;;;;;;;;;;;;;1.09;57.07;100417.81;5029584;28;20448;-58
2023/02/05 12:06:28;;;;;;;;;;;;;;;0.91;53.64;100401.81;5038427;28;20692;-59
2023/02/05 12:08:54;;;;;;;;;;;;;;;0.78;52.91;100414.63;5032232;28;20362;-58
2023/02/05 12:14:28;;;;;;;;;;;;;;;0.86;54.41;100400.72;5029756;28;20260;-58
2023/02/05 12:16:56;;;;;;;;;;;;;;;0.72;53.57;100404.25;5030012;28;20422;-58
2023/02/05 12:19:32;;;;;;;;;;;;;;;1.00;55.02;100396.31;5032375;28;19936;-56
2023/02/05 12:22:14;;;;;;;;;;;;;;;1.10;54.73;100398.50;5033233;28;19936;-55
2023/02/05 12:24:59;;;;;;;;;;;;;;;1.08;53.81;100389.97;5061769;28;20509;-55
2023/02/05 12:27:24;;;;;;;;;;;;;;;1.06;55.08;100394.09;5028346;28;19936;-54
2023/02/05 12:30:10;;;;;;;;;;;;;;;1.00;54.82;100383.69;5026579;28;20371;-54
2023/02/05 12:32:54;;;;;;;;;;;;;;;1.03;55.05;100383.81;5030332;28;19925;-56
2023/02/05 12:35:32;;;;;;;;;;;;;;;1.16;54.79;100391.19;5028450;28;20454;-51
2023/02/05 12:37:58;;;;;;;;;;;;;;;1.51;55.06;100383.56;5025446;28;20562;-56
2023/02/05 12:40:46;;;;;;;;;;;;;;;1.53;53.22;100376.06;5027897;28;19929;-54
2023/02/05 12:43:11;;;;;;;;;;;;;;;1.63;52.75;100368.94;5029660;28;20037;-54
2023/02/05 12:45:43;;;;;;;;;;;;;;;1.78;52.13;100367.06;5029488;28;20054;-55
2023/02/05 12:48:08;;;;;;;;;;;;;;;1.81;50.21;100369.75;5029527;28;19925;-54
2023/02/05 12:50:43;;;;;;;;;;;;;;;1.87;50.23;100373.34;5028749;28;19932;-56